createdAt,value
2017-06-10T00:00:47.601Z,0
2017-06-10T00:01:48.293Z,0
2017-06-10T00:02:49.135Z,0
2017-06-10T00:03:49.780Z,0
2017-06-10T00:04:50.422Z,0
2017-06-10T00:05:51.066Z,0
2017-06-10T00:06:51.710Z,0
2017-06-10T00:07:52.355Z,0
2017-06-10T00:08:52.999Z,0
2017-06-10T00:09:53.641Z,0
2017-06-10T00:10:54.535Z,0
2017-06-10T00:11:55.174Z,0
2017-06-10T00:12:55.815Z,0
2017-06-10T00:13:56.461Z,0
2017-06-10T00:14:57.103Z,0
2017-06-10T00:15:57.745Z,0
2017-06-10T00:16:58.389Z,0
2017-06-10T00:17:59.028Z,0
2017-06-10T00:18:59.971Z,0
2017-06-10T00:20:00.612Z,0
2017-06-10T00:21:01.253Z,0
2017-06-10T00:22:01.899Z,0
2017-06-10T00:23:02.541Z,0
2017-06-10T00:24:03.182Z,0
2017-06-10T00:25:03.824Z,0
2017-06-10T00:26:04.472Z,0
2017-06-10T00:27:05.112Z,0
2017-06-10T00:28:05.905Z,0
2017-06-10T00:29:06.546Z,0
2017-06-10T00:30:07.189Z,0
2017-06-10T00:31:07.832Z,0
2017-06-10T00:32:08.471Z,0
2017-06-10T00:33:09.113Z,0
2017-06-10T00:34:09.756Z,0
2017-06-10T00:35:10.401Z,0
2017-06-10T00:36:11.241Z,0
2017-06-10T00:37:11.883Z,0
2017-06-10T00:38:12.526Z,0
2017-06-10T00:39:13.169Z,0
2017-06-10T00:40:13.813Z,0
2017-06-10T00:41:14.456Z,0
2017-06-10T00:42:15.096Z,0
2017-06-10T00:43:15.799Z,0
2017-06-10T00:44:16.587Z,0
2017-06-10T00:45:17.229Z,0
2017-06-10T00:46:17.875Z,0
2017-06-10T00:47:18.517Z,0
2017-06-10T00:48:19.157Z,0
2017-06-10T00:49:19.797Z,0
2017-06-10T00:50:20.440Z,0
2017-06-10T00:51:21.080Z,0
2017-06-10T00:52:21.922Z,0
2017-06-10T00:53:22.563Z,0
2017-06-10T00:54:23.206Z,0
2017-06-10T00:55:23.849Z,0
2017-06-10T00:56:24.491Z,0
2017-06-10T00:57:25.132Z,0
2017-06-10T00:58:25.777Z,0
2017-06-10T00:59:26.418Z,0
2017-06-10T01:00:27.261Z,0
2017-06-10T01:01:27.905Z,0
2017-06-10T01:02:28.547Z,0
2017-06-10T01:03:29.190Z,0
2017-06-10T01:04:29.831Z,0
2017-06-10T01:05:30.474Z,0
2017-06-10T01:06:31.115Z,0
2017-06-10T01:07:31.758Z,0
2017-06-10T01:08:32.399Z,0
2017-06-10T01:09:33.340Z,0
2017-06-10T01:10:33.981Z,0
2017-06-10T01:11:34.628Z,0
2017-06-10T01:12:35.272Z,0
2017-06-10T01:13:35.966Z,0
2017-06-10T01:14:36.612Z,0
2017-06-10T01:15:37.253Z,0
2017-06-10T01:16:37.898Z,0
2017-06-10T01:17:38.837Z,0
2017-06-10T01:18:39.479Z,0
2017-06-10T01:19:40.123Z,0
2017-06-10T01:20:40.761Z,0
2017-06-10T01:21:41.404Z,0
2017-06-10T01:22:42.049Z,0
2017-06-10T01:23:42.694Z,0
2017-06-10T01:24:43.332Z,0
2017-06-10T01:25:44.274Z,0
2017-06-10T01:26:44.917Z,0
2017-06-10T01:27:45.558Z,0
2017-06-10T01:28:46.198Z,0
2017-06-10T01:29:46.843Z,0
2017-06-10T01:30:47.484Z,0
2017-06-10T01:31:48.128Z,0
2017-06-10T01:32:48.770Z,0
2017-06-10T01:33:49.809Z,0
2017-06-10T01:34:50.452Z,0
2017-06-10T01:35:51.092Z,0
2017-06-10T01:36:51.733Z,0
2017-06-10T01:37:52.373Z,0
2017-06-10T01:38:53.016Z,0
2017-06-10T01:39:53.660Z,0
2017-06-10T01:40:54.304Z,0
2017-06-10T01:41:55.144Z,0
2017-06-10T01:42:55.787Z,0
2017-06-10T01:43:56.427Z,0
2017-06-10T01:44:57.073Z,0
2017-06-10T01:45:57.716Z,0
2017-06-10T01:46:58.357Z,0
2017-06-10T01:47:58.999Z,0
2017-06-10T01:48:59.639Z,0
2017-06-10T01:50:00.281Z,0
2017-06-10T01:51:01.121Z,0
2017-06-10T01:52:01.765Z,0
2017-06-10T01:53:02.405Z,0
2017-06-10T01:54:03.047Z,0
2017-06-10T01:55:03.687Z,0
2017-06-10T01:56:04.334Z,0
2017-06-10T01:57:04.973Z,0
2017-06-10T01:58:05.614Z,0
2017-06-10T01:59:06.456Z,0
2017-06-10T02:00:07.099Z,0
2017-06-10T02:01:07.739Z,0
2017-06-10T02:02:08.382Z,0
2017-06-10T02:03:09.025Z,0
2017-06-10T02:04:09.667Z,0
2017-06-10T02:05:10.309Z,0
2017-06-10T02:06:10.952Z,0
2017-06-10T02:07:11.794Z,0
2017-06-10T02:08:12.439Z,0
2017-06-10T02:09:13.083Z,0
2017-06-10T02:10:13.722Z,0
2017-06-10T02:11:14.365Z,0
2017-06-10T02:12:15.006Z,0
2017-06-10T02:13:15.651Z,0
2017-06-10T02:14:16.292Z,0
2017-06-10T02:15:17.134Z,0
2017-06-10T02:16:17.774Z,0
2017-06-10T02:17:18.417Z,0
2017-06-10T02:18:19.059Z,0
2017-06-10T02:19:19.701Z,0
2017-06-10T02:20:20.345Z,0
2017-06-10T02:21:20.986Z,0
2017-06-10T02:22:21.630Z,0
2017-06-10T02:23:22.270Z,0
2017-06-10T02:24:23.111Z,0
2017-06-10T02:25:23.755Z,0
2017-06-10T02:26:24.399Z,0
2017-06-10T02:27:25.040Z,0
2017-06-10T02:28:25.681Z,0
2017-06-10T02:29:26.324Z,0
2017-06-10T02:30:26.966Z,0
2017-06-10T02:31:27.608Z,0
2017-06-10T02:32:28.550Z,0
2017-06-10T02:33:29.190Z,0
2017-06-10T02:34:29.832Z,0
2017-06-10T02:35:30.476Z,0
2017-06-10T02:36:31.115Z,0
2017-06-10T02:37:31.756Z,0
2017-06-10T02:38:32.398Z,0
2017-06-10T02:39:33.041Z,0
2017-06-10T02:40:33.982Z,0
2017-06-10T02:41:34.624Z,0
2017-06-10T02:42:35.268Z,0
2017-06-10T02:43:35.908Z,0
2017-06-10T02:44:36.550Z,0
2017-06-10T02:45:37.195Z,0
2017-06-10T02:46:37.837Z,0
2017-06-10T02:47:38.477Z,0
2017-06-10T02:48:39.269Z,0
2017-06-10T02:49:39.913Z,0
2017-06-10T02:50:40.554Z,0
2017-06-10T02:51:41.197Z,0
2017-06-10T02:52:41.838Z,0
2017-06-10T02:53:42.483Z,0
2017-06-10T02:54:43.127Z,0
2017-06-10T02:55:43.766Z,0
2017-06-10T02:56:44.608Z,0
2017-06-10T02:57:45.249Z,0
2017-06-10T02:58:45.895Z,0
2017-06-10T02:59:46.536Z,0
2017-06-10T03:00:47.178Z,0
2017-06-10T03:01:47.818Z,0
2017-06-10T03:02:48.462Z,0
2017-06-10T03:03:49.103Z,0
2017-06-10T03:04:49.743Z,0
2017-06-10T03:05:50.586Z,0
2017-06-10T03:06:51.229Z,0
2017-06-10T03:07:52.721Z,0
2017-06-10T03:08:53.361Z,0
2017-06-10T03:09:54.005Z,0
2017-06-10T03:10:54.649Z,0
2017-06-10T03:11:55.292Z,0
2017-06-10T03:12:55.935Z,0
2017-06-10T03:13:56.774Z,0
2017-06-10T03:14:57.419Z,0
2017-06-10T03:15:58.062Z,0
2017-06-10T03:16:58.703Z,0
2017-06-10T03:17:59.347Z,0
2017-06-10T03:18:59.990Z,0
2017-06-10T03:20:00.633Z,0
2017-06-10T03:21:01.274Z,0
2017-06-10T03:22:02.214Z,0
2017-06-10T03:23:02.855Z,0
2017-06-10T03:24:03.497Z,0
2017-06-10T03:25:04.138Z,0
2017-06-10T03:26:04.781Z,0
2017-06-10T03:27:05.422Z,0
2017-06-10T03:28:06.065Z,0
2017-06-10T03:29:06.707Z,0
2017-06-10T03:30:07.497Z,0
2017-06-10T03:31:08.138Z,0
2017-06-10T03:32:08.777Z,0
2017-06-10T03:33:09.419Z,0
2017-06-10T03:34:10.063Z,0
2017-06-10T03:35:10.705Z,0
2017-06-10T03:36:11.351Z,0
2017-06-10T03:37:11.994Z,0
2017-06-10T03:38:12.635Z,0
2017-06-10T03:39:13.477Z,0
2017-06-10T03:40:14.120Z,0
2017-06-10T03:41:14.766Z,0
2017-06-10T03:42:15.406Z,0
2017-06-10T03:43:16.049Z,0
2017-06-10T03:44:16.689Z,0
2017-06-10T03:45:17.332Z,0
2017-06-10T03:46:17.974Z,0
2017-06-10T03:47:18.816Z,0
2017-06-10T03:48:19.460Z,0
2017-06-10T03:49:20.104Z,0
2017-06-10T03:50:20.746Z,0
2017-06-10T03:51:21.390Z,0
2017-06-10T03:52:22.029Z,0
2017-06-10T03:53:22.673Z,0
2017-06-10T03:54:23.312Z,0
2017-06-10T03:55:24.155Z,0
2017-06-10T03:56:24.798Z,0
2017-06-10T03:57:25.439Z,0
2017-06-10T03:58:26.079Z,0
2017-06-10T03:59:26.721Z,0
2017-06-10T04:00:27.366Z,0
2017-06-10T04:01:28.007Z,0
2017-06-10T04:02:28.652Z,0
2017-06-10T04:03:29.492Z,0
2017-06-10T04:04:30.132Z,0
2017-06-10T04:05:30.778Z,0
2017-06-10T04:06:31.419Z,0
2017-06-10T04:07:32.061Z,0
2017-06-10T04:08:32.703Z,0
2017-06-10T04:09:33.344Z,0
2017-06-10T04:10:33.984Z,0
2017-06-10T04:11:34.825Z,0
2017-06-10T04:12:35.468Z,0
2017-06-10T04:13:36.111Z,0
2017-06-10T04:14:36.750Z,0
2017-06-10T04:15:37.392Z,0
2017-06-10T04:16:38.035Z,0
2017-06-10T04:17:38.676Z,0
2017-06-10T04:18:39.320Z,0
2017-06-10T04:19:39.973Z,0
2017-06-10T04:20:40.813Z,0
2017-06-10T04:21:41.456Z,0
2017-06-10T04:22:42.096Z,0
2017-06-10T04:23:42.739Z,0
2017-06-10T04:24:43.380Z,0
2017-06-10T04:25:44.022Z,0
2017-06-10T04:26:44.664Z,0
2017-06-10T04:27:45.306Z,0
2017-06-10T04:28:46.147Z,0
2017-06-10T04:29:46.788Z,0
2017-06-10T04:30:47.430Z,0
2017-06-10T04:31:48.075Z,0
2017-06-10T04:32:48.717Z,0
2017-06-10T04:33:49.356Z,0
2017-06-10T04:34:49.997Z,0
2017-06-10T04:35:50.638Z,0
2017-06-10T04:36:51.428Z,0
2017-06-10T04:37:52.069Z,0
2017-06-10T04:38:52.710Z,0
2017-06-10T04:39:53.351Z,0
2017-06-10T04:40:53.993Z,0
2017-06-10T04:41:54.638Z,0
2017-06-10T04:42:55.279Z,0
2017-06-10T04:43:55.920Z,0
2017-06-10T04:44:56.770Z,0
2017-06-10T04:45:57.405Z,0
2017-06-10T04:46:58.047Z,0
2017-06-10T04:47:58.690Z,0
2017-06-10T04:48:59.331Z,0
2017-06-10T04:49:59.973Z,0
2017-06-10T04:51:00.613Z,0
2017-06-10T04:52:01.257Z,0
2017-06-10T04:53:01.899Z,0
2017-06-10T04:54:02.691Z,0
2017-06-10T04:55:03.331Z,0
2017-06-10T04:56:03.976Z,0
2017-06-10T04:57:04.674Z,0
2017-06-10T04:58:05.316Z,0
2017-06-10T04:59:05.959Z,0
2017-06-10T05:00:06.598Z,0
2017-06-10T05:01:07.242Z,0
2017-06-10T05:02:08.085Z,0
2017-06-10T05:03:08.725Z,0
2017-06-10T05:04:09.367Z,0
2017-06-10T05:05:10.007Z,0
2017-06-10T05:06:10.653Z,0
2017-06-10T05:07:11.293Z,0
2017-06-10T05:08:11.933Z,0
2017-06-10T05:09:12.575Z,0
2017-06-10T05:10:13.415Z,0
2017-06-10T05:11:14.061Z,0
2017-06-10T05:12:14.702Z,0
2017-06-10T05:13:15.343Z,0
2017-06-10T05:14:15.983Z,0
2017-06-10T05:15:16.624Z,0
2017-06-10T05:16:17.269Z,0
2017-06-10T05:17:17.909Z,0
2017-06-10T05:18:18.855Z,0
2017-06-10T05:19:19.495Z,0
2017-06-10T05:20:20.139Z,0
2017-06-10T05:21:20.780Z,0
2017-06-10T05:22:21.419Z,0
2017-06-10T05:23:22.061Z,0
2017-06-10T05:24:22.704Z,0
2017-06-10T05:25:23.347Z,0
2017-06-10T05:26:24.238Z,0
2017-06-10T05:27:24.883Z,0
2017-06-10T05:28:25.523Z,0
2017-06-10T05:29:26.162Z,0
2017-06-10T05:30:26.807Z,0
2017-06-10T05:31:27.449Z,0
2017-06-10T05:32:28.089Z,0
2017-06-10T05:33:28.733Z,0
2017-06-10T05:34:29.377Z,0
2017-06-10T05:35:30.418Z,0
2017-06-10T05:36:31.060Z,0
2017-06-10T05:37:31.703Z,0
2017-06-10T05:38:32.346Z,0
2017-06-10T05:39:32.987Z,0
2017-06-10T05:40:33.626Z,0
2017-06-10T05:41:34.270Z,0
2017-06-10T05:42:34.910Z,0
2017-06-10T05:43:35.803Z,0
2017-06-10T05:44:36.446Z,0
2017-06-10T05:45:37.086Z,0
2017-06-10T05:46:37.728Z,0
2017-06-10T05:47:38.370Z,0
2017-06-10T05:48:39.011Z,0
2017-06-10T05:49:39.651Z,0
2017-06-10T05:50:40.296Z,0
2017-06-10T05:51:41.187Z,0
2017-06-10T05:52:41.829Z,0
2017-06-10T05:53:42.472Z,0
2017-06-10T05:54:43.113Z,0
2017-06-10T05:55:43.754Z,0
2017-06-10T05:56:44.395Z,0
2017-06-10T05:57:45.037Z,0
2017-06-10T05:58:45.681Z,0
2017-06-10T05:59:46.522Z,0
2017-06-10T06:00:47.166Z,0
2017-06-10T06:01:47.806Z,0
2017-06-10T06:02:48.448Z,0
2017-06-10T06:03:49.093Z,0
2017-06-10T06:04:49.737Z,0
2017-06-10T06:05:50.378Z,0
2017-06-10T06:06:51.020Z,0
2017-06-10T06:07:51.662Z,0
2017-06-10T06:08:52.452Z,0
2017-06-10T06:09:53.092Z,0
2017-06-10T06:10:53.732Z,0
2017-06-10T06:11:54.376Z,0
2017-06-10T06:12:55.017Z,0
2017-06-10T06:13:55.659Z,0
2017-06-10T06:14:56.301Z,0
2017-06-10T06:15:56.943Z,0
2017-06-10T06:16:57.783Z,0
2017-06-10T06:17:58.426Z,0
2017-06-10T06:18:59.068Z,0
2017-06-10T06:19:59.711Z,0
2017-06-10T06:21:00.355Z,0
2017-06-10T06:22:00.996Z,0
2017-06-10T06:23:01.636Z,0
2017-06-10T06:24:02.278Z,0
2017-06-10T06:25:03.072Z,0
2017-06-10T06:26:03.717Z,0
2017-06-10T06:27:04.358Z,0
2017-06-10T06:28:04.999Z,0
2017-06-10T06:29:05.638Z,0
2017-06-10T06:30:06.280Z,0
2017-06-10T06:31:06.922Z,0
2017-06-10T06:32:07.565Z,0
2017-06-10T06:33:08.407Z,0
2017-06-10T06:34:09.050Z,0
2017-06-10T06:35:09.692Z,0
2017-06-10T06:36:10.333Z,0
2017-06-10T06:37:10.974Z,0
2017-06-10T06:38:11.619Z,0
2017-06-10T06:39:12.262Z,0
2017-06-10T06:40:12.901Z,0
2017-06-10T06:41:13.742Z,0
2017-06-10T06:42:14.382Z,0
2017-06-10T06:43:15.025Z,0
2017-06-10T06:44:15.667Z,0
2017-06-10T06:45:16.308Z,0
2017-06-10T06:46:16.949Z,0
2017-06-10T06:47:17.592Z,0
2017-06-10T06:48:18.231Z,0
2017-06-10T06:49:18.874Z,0
2017-06-10T06:50:19.667Z,0
2017-06-10T06:51:20.308Z,0
2017-06-10T06:52:20.950Z,0
2017-06-10T06:53:21.591Z,0
2017-06-10T06:54:22.233Z,0
2017-06-10T06:55:22.876Z,0
2017-06-10T06:56:23.517Z,0
2017-06-10T06:57:24.156Z,0
2017-06-10T06:58:25.006Z,0
2017-06-10T06:59:25.643Z,0
2017-06-10T07:00:26.285Z,0
2017-06-10T07:01:26.927Z,0
2017-06-10T07:02:27.568Z,0
2017-06-10T07:03:28.212Z,0
2017-06-10T07:04:28.850Z,0
2017-06-10T07:05:29.494Z,0
2017-06-10T07:06:30.284Z,0
2017-06-10T07:07:30.928Z,0
2017-06-10T07:08:31.569Z,0
2017-06-10T07:09:32.212Z,0
2017-06-10T07:10:32.855Z,0
2017-06-10T07:11:33.497Z,0
2017-06-10T07:12:34.139Z,0
2017-06-10T07:13:34.783Z,0
2017-06-10T07:14:35.624Z,0
2017-06-10T07:15:36.265Z,0
2017-06-10T07:16:36.909Z,0
2017-06-10T07:17:37.551Z,0
2017-06-10T07:18:38.191Z,0
2017-06-10T07:19:38.834Z,0
2017-06-10T07:20:39.475Z,0
2017-06-10T07:21:40.116Z,0
2017-06-10T07:22:40.758Z,0
2017-06-10T07:23:41.602Z,0
2017-06-10T07:24:42.244Z,0
2017-06-10T07:25:42.885Z,0
2017-06-10T07:26:43.527Z,0
2017-06-10T07:27:44.170Z,0
2017-06-10T07:28:44.812Z,0
2017-06-10T07:29:45.455Z,0
2017-06-10T07:30:46.099Z,0
2017-06-10T07:31:46.891Z,0
2017-06-10T07:32:47.531Z,0
2017-06-10T07:33:48.176Z,0
2017-06-10T07:34:48.818Z,0
2017-06-10T07:35:49.461Z,0
2017-06-10T07:36:50.102Z,0
2017-06-10T07:37:50.744Z,0
2017-06-10T07:38:51.388Z,0
2017-06-10T07:39:52.227Z,0
2017-06-10T07:40:52.867Z,0
2017-06-10T07:41:53.510Z,0
2017-06-10T07:42:54.152Z,0
2017-06-10T07:43:54.794Z,0
2017-06-10T07:44:55.436Z,0
2017-06-10T07:45:56.078Z,0
2017-06-10T07:46:56.720Z,0
2017-06-10T07:47:57.667Z,0
2017-06-10T07:48:58.310Z,0
2017-06-10T07:49:58.953Z,0
2017-06-10T07:50:59.595Z,0
2017-06-10T07:52:00.237Z,0
2017-06-10T07:53:00.881Z,0
2017-06-10T07:54:01.522Z,0
2017-06-10T07:55:02.163Z,0
2017-06-10T07:56:03.005Z,0
2017-06-10T07:57:03.647Z,0
2017-06-10T07:58:04.289Z,0
2017-06-10T07:59:04.931Z,0
2017-06-10T08:00:05.577Z,0
2017-06-10T08:01:06.216Z,0
2017-06-10T08:02:06.858Z,0
2017-06-10T08:03:07.499Z,0
2017-06-10T08:04:08.165Z,0
2017-06-10T08:05:09.083Z,0
2017-06-10T08:06:09.725Z,0
2017-06-10T08:07:10.370Z,0
2017-06-10T08:08:11.016Z,0
2017-06-10T08:09:11.655Z,0
2017-06-10T08:10:12.298Z,0
2017-06-10T08:11:12.947Z,0
2017-06-10T08:12:13.589Z,0
2017-06-10T08:13:14.432Z,0
2017-06-10T08:14:15.073Z,0
2017-06-10T08:15:15.715Z,0
2017-06-10T08:16:16.359Z,0
2017-06-10T08:17:17.001Z,0
2017-06-10T08:18:17.644Z,0
2017-06-10T08:19:18.284Z,0
2017-06-10T08:20:18.926Z,0
2017-06-10T08:21:19.721Z,0
2017-06-10T08:22:20.362Z,0
2017-06-10T08:23:21.006Z,0
2017-06-10T08:24:21.646Z,0
2017-06-10T08:25:22.288Z,0
2017-06-10T08:26:22.933Z,0
2017-06-10T08:27:23.573Z,0
2017-06-10T08:28:24.217Z,0
2017-06-10T08:29:25.162Z,0
2017-06-10T08:30:25.807Z,0
2017-06-10T08:31:26.450Z,0
2017-06-10T08:32:27.094Z,0
2017-06-10T08:33:27.734Z,0
2017-06-10T08:34:28.378Z,0
2017-06-10T08:35:29.018Z,0
2017-06-10T08:36:29.663Z,0
2017-06-10T08:37:30.306Z,0
2017-06-10T08:38:31.102Z,0
2017-06-10T08:39:31.746Z,0
2017-06-10T08:40:32.388Z,0
2017-06-10T08:41:33.030Z,0
2017-06-10T08:42:33.674Z,0
2017-06-10T08:43:34.319Z,0
2017-06-10T08:44:34.963Z,0
2017-06-10T08:45:35.608Z,0
2017-06-10T08:46:36.449Z,0
2017-06-10T08:47:37.095Z,0
2017-06-10T08:48:37.734Z,0
2017-06-10T08:49:38.379Z,0
2017-06-10T08:50:39.024Z,0
2017-06-10T08:51:39.667Z,0
2017-06-10T08:52:40.310Z,0
2017-06-10T08:53:40.954Z,0
2017-06-10T08:54:41.797Z,0
2017-06-10T08:55:42.440Z,0
2017-06-10T08:56:43.084Z,0
2017-06-10T08:57:43.727Z,0
2017-06-10T08:58:44.371Z,0
2017-06-10T08:59:45.015Z,0
2017-06-10T09:00:45.656Z,0
2017-06-10T09:01:46.298Z,0
2017-06-10T09:02:47.043Z,0
2017-06-10T09:03:47.685Z,0
2017-06-10T09:04:48.326Z,0
2017-06-10T09:05:48.968Z,0
2017-06-10T09:06:49.613Z,0
2017-06-10T09:07:50.255Z,0
2017-06-10T09:08:50.898Z,0
2017-06-10T09:09:51.541Z,0
2017-06-10T09:10:52.389Z,0
2017-06-10T09:11:53.031Z,0
2017-06-10T09:12:53.673Z,0
2017-06-10T09:13:54.314Z,0
2017-06-10T09:14:54.957Z,0
2017-06-10T09:15:55.601Z,0
2017-06-10T09:16:56.247Z,0
2017-06-10T09:17:56.894Z,0
2017-06-10T09:18:57.532Z,0
2017-06-10T09:19:58.375Z,0
2017-06-10T09:20:59.018Z,0
2017-06-10T09:21:59.665Z,0
2017-06-10T09:23:00.305Z,0
2017-06-10T09:24:00.949Z,0
2017-06-10T09:25:01.595Z,0
2017-06-10T09:26:02.238Z,0
2017-06-10T09:27:02.880Z,0
2017-06-10T09:28:03.771Z,0
2017-06-10T09:29:04.415Z,0
2017-06-10T09:30:05.056Z,0
2017-06-10T09:31:05.704Z,0
2017-06-10T09:32:06.348Z,0
2017-06-10T09:33:06.993Z,0
2017-06-10T09:34:07.637Z,0
2017-06-10T09:35:08.278Z,0
2017-06-10T09:36:09.121Z,0
2017-06-10T09:37:09.764Z,0
2017-06-10T09:38:10.409Z,0
2017-06-10T09:39:11.053Z,0
2017-06-10T09:40:11.699Z,0
2017-06-10T09:41:12.349Z,0
2017-06-10T09:42:12.983Z,0
2017-06-10T09:43:13.624Z,0
2017-06-10T09:44:14.571Z,0
2017-06-10T09:45:15.212Z,0
2017-06-10T09:46:15.854Z,0
2017-06-10T09:47:16.496Z,0
2017-06-10T09:48:17.143Z,0
2017-06-10T09:49:17.789Z,0
2017-06-10T09:50:18.438Z,0
2017-06-10T09:51:19.077Z,0
2017-06-10T09:52:19.719Z,0
2017-06-10T09:53:20.512Z,0
2017-06-10T09:54:21.155Z,0
2017-06-10T09:55:21.800Z,0
2017-06-10T09:56:22.446Z,0
2017-06-10T09:57:23.089Z,0
2017-06-10T09:58:23.730Z,0
2017-06-10T09:59:24.373Z,0
2017-06-10T10:00:25.017Z,0
2017-06-10T10:01:25.862Z,0
2017-06-10T10:02:26.504Z,0
2017-06-10T10:03:27.152Z,0
2017-06-10T10:04:27.945Z,0
2017-06-10T10:05:28.586Z,0
2017-06-10T10:06:29.229Z,0
2017-06-10T10:07:29.876Z,0
2017-06-10T10:08:30.520Z,0
2017-06-10T10:09:31.165Z,0
2017-06-10T10:10:31.808Z,0
2017-06-10T10:11:32.450Z,0
2017-06-10T10:12:33.095Z,0
2017-06-10T10:13:34.034Z,0
2017-06-10T10:14:34.627Z,0
2017-06-10T10:15:35.272Z,0
2017-06-10T10:16:35.916Z,0
2017-06-10T10:17:36.561Z,0
2017-06-10T10:18:37.203Z,0
2017-06-10T10:19:37.844Z,0
2017-06-10T10:20:38.487Z,0
2017-06-10T10:21:39.333Z,0
2017-06-10T10:22:39.976Z,0
2017-06-10T10:23:40.622Z,0
2017-06-10T10:24:41.266Z,0
2017-06-10T10:25:41.907Z,0
2017-06-10T10:26:42.549Z,0
2017-06-10T10:27:43.191Z,0
2017-06-10T10:28:43.836Z,0
2017-06-10T10:29:44.629Z,0
2017-06-10T10:30:45.270Z,0
2017-06-10T10:31:45.912Z,0
2017-06-10T10:32:46.554Z,0
2017-06-10T10:33:47.196Z,0
2017-06-10T10:34:47.841Z,0
2017-06-10T10:35:48.484Z,0
2017-06-10T10:36:49.130Z,0
2017-06-10T10:37:49.973Z,0
2017-06-10T10:38:50.617Z,0
2017-06-10T10:39:51.259Z,0
2017-06-10T10:40:51.901Z,0
2017-06-10T10:41:52.544Z,0
2017-06-10T10:42:53.188Z,0
2017-06-10T10:43:53.834Z,0
2017-06-10T10:44:54.473Z,0
2017-06-10T10:45:55.317Z,0
2017-06-10T10:46:55.961Z,0
2017-06-10T10:47:56.552Z,0
2017-06-10T10:48:57.193Z,0
2017-06-10T10:49:57.839Z,0
2017-06-10T10:50:58.479Z,0
2017-06-10T10:51:59.124Z,0
2017-06-10T10:52:59.768Z,0
2017-06-10T10:54:00.409Z,0
2017-06-10T10:55:01.355Z,0
2017-06-10T10:56:01.999Z,0
2017-06-10T10:57:02.642Z,0
2017-06-10T10:58:03.286Z,0
2017-06-10T10:59:03.932Z,0
2017-06-10T11:00:04.573Z,0
2017-06-10T11:01:05.215Z,0
2017-06-10T11:02:05.857Z,0
2017-06-10T11:03:06.699Z,0
2017-06-10T11:04:07.347Z,0
2017-06-10T11:05:07.988Z,0
2017-06-10T11:06:08.631Z,0
2017-06-10T11:07:09.272Z,0
2017-06-10T11:08:09.921Z,0
2017-06-10T11:09:10.561Z,0
2017-06-10T11:10:11.205Z,0
2017-06-10T11:11:12.047Z,0
2017-06-10T11:12:12.691Z,0
2017-06-10T11:13:13.334Z,0
2017-06-10T11:14:13.980Z,0
2017-06-10T11:15:14.621Z,0
2017-06-10T11:16:15.322Z,0
2017-06-10T11:17:15.963Z,0
2017-06-10T11:18:16.606Z,0
2017-06-10T11:19:17.499Z,0
2017-06-10T11:20:18.145Z,0
2017-06-10T11:21:18.791Z,0
2017-06-10T11:22:19.434Z,0
2017-06-10T11:23:20.077Z,0
2017-06-10T11:24:20.721Z,0
2017-06-10T11:25:21.362Z,0
2017-06-10T11:26:22.005Z,0
2017-06-10T11:27:22.649Z,0
2017-06-10T11:28:23.489Z,0
2017-06-10T11:29:24.131Z,0
2017-06-10T11:30:24.777Z,5
2017-06-10T11:31:25.420Z,10
2017-06-10T11:32:26.066Z,700
2017-06-10T11:33:26.717Z,670
2017-06-10T11:34:27.367Z,705
2017-06-10T11:35:28.011Z,685
2017-06-10T11:36:28.910Z,675
2017-06-10T11:37:29.558Z,745
2017-06-10T11:38:30.205Z,720
2017-06-10T11:39:30.854Z,690
2017-06-10T11:40:31.500Z,720
2017-06-10T11:41:32.147Z,810
2017-06-10T11:42:32.796Z,825
2017-06-10T11:43:33.443Z,860
2017-06-10T11:44:34.492Z,835
2017-06-10T11:45:35.142Z,780
2017-06-10T11:46:35.788Z,750
2017-06-10T11:47:36.537Z,650
2017-06-10T11:48:37.188Z,405
2017-06-10T11:49:37.834Z,235
2017-06-10T11:50:38.485Z,215
2017-06-10T11:51:39.137Z,205
2017-06-10T11:52:40.129Z,210
2017-06-10T11:53:40.780Z,215
2017-06-10T11:54:41.432Z,215
2017-06-10T11:55:42.083Z,210
2017-06-10T11:56:42.734Z,210
2017-06-10T11:57:43.387Z,195
2017-06-10T11:58:44.039Z,185
2017-06-10T11:59:44.692Z,200
2017-06-10T12:00:45.557Z,210
2017-06-10T12:01:46.210Z,215
2017-06-10T12:02:46.862Z,255
2017-06-10T12:03:47.519Z,305
2017-06-10T12:04:48.163Z,540
2017-06-10T12:05:48.811Z,750
2017-06-10T12:06:49.464Z,785
2017-06-10T12:07:50.113Z,815
2017-06-10T12:08:50.765Z,775
2017-06-10T12:09:51.565Z,765
2017-06-10T12:10:52.218Z,760
2017-06-10T12:11:52.869Z,765
2017-06-10T12:12:53.518Z,820
2017-06-10T12:13:54.170Z,825
2017-06-10T12:14:54.824Z,825
2017-06-10T12:15:55.474Z,805
2017-06-10T12:16:56.127Z,780
2017-06-10T12:17:57.127Z,805
2017-06-10T12:18:57.781Z,710
2017-06-10T12:19:58.433Z,710
2017-06-10T12:20:59.087Z,730
2017-06-10T12:21:59.739Z,735
2017-06-10T12:23:00.391Z,775
2017-06-10T12:24:01.044Z,740
2017-06-10T12:25:01.698Z,910
2017-06-10T12:26:02.501Z,895
2017-06-10T12:27:03.153Z,905
2017-06-10T12:28:03.806Z,735
2017-06-10T12:29:04.458Z,670
2017-06-10T12:30:05.109Z,475
2017-06-10T12:31:05.760Z,310
2017-06-10T12:32:06.410Z,495
2017-06-10T12:33:07.064Z,790
2017-06-10T12:34:07.917Z,960
2017-06-10T12:35:08.575Z,980
2017-06-10T12:36:09.226Z,1000
2017-06-10T12:37:09.877Z,1035
2017-06-10T12:38:10.529Z,1040
2017-06-10T12:39:11.185Z,985
2017-06-10T12:40:11.837Z,995
2017-06-10T12:41:12.490Z,1040
2017-06-10T12:42:13.145Z,1065
2017-06-10T12:43:13.997Z,1030
2017-06-10T12:44:14.650Z,750
2017-06-10T12:45:15.304Z,780
2017-06-10T12:46:15.959Z,740
2017-06-10T12:47:16.612Z,710
2017-06-10T12:48:17.263Z,950
2017-06-10T12:49:17.915Z,885
2017-06-10T12:50:18.568Z,885
2017-06-10T12:51:19.425Z,1015
2017-06-10T12:52:20.073Z,945
2017-06-10T12:53:20.727Z,1045
2017-06-10T12:54:21.383Z,935
2017-06-10T12:55:22.037Z,945
2017-06-10T12:56:22.691Z,1060
2017-06-10T12:57:23.348Z,1155
2017-06-10T12:58:24.002Z,1140
2017-06-10T12:59:24.857Z,1125
2017-06-10T13:00:25.513Z,1090
2017-06-10T13:01:26.164Z,1125
2017-06-10T13:02:26.818Z,1135
2017-06-10T13:03:27.474Z,1095
2017-06-10T13:04:28.128Z,1075
2017-06-10T13:05:28.784Z,930
2017-06-10T13:06:29.437Z,960
2017-06-10T13:07:30.240Z,1090
2017-06-10T13:08:30.898Z,1105
2017-06-10T13:09:31.552Z,1165
2017-06-10T13:10:32.209Z,1170
2017-06-10T13:11:32.862Z,1185
2017-06-10T13:12:33.517Z,1135
2017-06-10T13:13:34.167Z,1035
2017-06-10T13:14:34.818Z,980
2017-06-10T13:15:35.670Z,940
2017-06-10T13:16:36.324Z,900
2017-06-10T13:17:36.980Z,890
2017-06-10T13:18:37.634Z,900
2017-06-10T13:19:38.286Z,910
2017-06-10T13:20:38.939Z,940
2017-06-10T13:21:39.592Z,975
2017-06-10T13:22:40.245Z,960
2017-06-10T13:23:40.898Z,985
2017-06-10T13:24:41.751Z,965
2017-06-10T13:25:42.403Z,995
2017-06-10T13:26:43.056Z,1035
2017-06-10T13:27:43.707Z,1025
2017-06-10T13:28:44.361Z,995
2017-06-10T13:29:45.014Z,1000
2017-06-10T13:30:45.668Z,990
2017-06-10T13:31:46.317Z,940
2017-06-10T13:32:47.169Z,905
2017-06-10T13:33:47.826Z,935
2017-06-10T13:34:48.477Z,980
2017-06-10T13:35:49.129Z,1035
2017-06-10T13:36:49.782Z,1015
2017-06-10T13:37:50.436Z,1045
2017-06-10T13:38:51.089Z,1085
2017-06-10T13:39:51.744Z,1035
2017-06-10T13:40:52.595Z,1020
2017-06-10T13:41:53.249Z,955
2017-06-10T13:42:53.901Z,870
2017-06-10T13:43:54.554Z,835
2017-06-10T13:44:55.207Z,740
2017-06-10T13:45:55.863Z,685
2017-06-10T13:46:56.516Z,605
2017-06-10T13:47:57.171Z,550
2017-06-10T13:48:57.975Z,510
2017-06-10T13:49:58.625Z,455
2017-06-10T13:50:59.277Z,415
2017-06-10T13:51:59.929Z,350
2017-06-10T13:53:00.581Z,285
2017-06-10T13:54:01.232Z,230
2017-06-10T13:55:01.887Z,205
2017-06-10T13:56:02.537Z,190
2017-06-10T13:57:03.191Z,185
2017-06-10T13:58:04.043Z,180
2017-06-10T13:59:04.695Z,180
2017-06-10T14:00:05.350Z,175
2017-06-10T14:01:06.003Z,170
2017-06-10T14:02:06.653Z,170
2017-06-10T14:03:07.309Z,165
2017-06-10T14:04:07.962Z,165
2017-06-10T14:05:08.614Z,160
2017-06-10T14:06:09.465Z,160
2017-06-10T14:07:10.119Z,160
2017-06-10T14:08:10.769Z,160
2017-06-10T14:09:11.421Z,155
2017-06-10T14:10:12.072Z,155
2017-06-10T14:11:12.724Z,155
2017-06-10T14:12:13.375Z,150
2017-06-10T14:13:14.026Z,155
2017-06-10T14:14:14.884Z,160
2017-06-10T14:15:15.537Z,150
2017-06-10T14:16:16.190Z,150
2017-06-10T14:17:16.842Z,165
2017-06-10T14:18:17.492Z,145
2017-06-10T14:19:18.146Z,145
2017-06-10T14:20:18.798Z,145
2017-06-10T14:21:19.451Z,145
2017-06-10T14:22:20.301Z,160
2017-06-10T14:23:20.952Z,145
2017-06-10T14:24:21.602Z,145
2017-06-10T14:25:22.255Z,145
2017-06-10T14:26:22.909Z,145
2017-06-10T14:27:23.561Z,145
2017-06-10T14:28:24.212Z,145
2017-06-10T14:29:24.866Z,140
2017-06-10T14:30:25.766Z,140
2017-06-10T14:31:26.419Z,140
2017-06-10T14:32:27.072Z,140
2017-06-10T14:33:27.723Z,140
2017-06-10T14:34:28.374Z,140
2017-06-10T14:35:29.029Z,140
2017-06-10T14:36:29.681Z,140
2017-06-10T14:37:30.337Z,135
2017-06-10T14:38:30.984Z,135
2017-06-10T14:39:31.838Z,140
2017-06-10T14:40:32.490Z,140
2017-06-10T14:41:33.142Z,140
2017-06-10T14:42:33.791Z,135